FW8886 Weather Reports


time (UTC)temp
C
wind
direction
speed
KPH
gust
KPH
rain 1hr
cm
rain 24hr
cm
rain mn
cm
humidity
%
barometer
mb
20260510000053 12 153 4.8 17.7 0.00 1.04 1.02 86 1007.8
20260509235527 12 130 8.0 17.7 0.00 1.04 1.02 86 1007.7
20260509235027 12 161 4.8 14.5 0.00 1.04 1.02 85 1007.8
20260509234648 13 154 4.8 9.7 0.00 1.04 1.02 85 1007.7
20260509232528 13 136 3.2 12.9 0.00 1.04 1.02 83 1007.7
20260509232027 13 149 4.8 14.5 0.00 1.04 1.02 82 1007.6
20260509231547 13 184 4.8 14.5 0.00 1.04 1.02 82 1007.5
20260509231026 13 198 6.4 14.5 0.00 1.04 1.02 82 1007.5
20260509230526 13 196 6.4 14.5 0.00 1.04 1.02 82 1007.3
20260509230049 13 192 6.4 19.3 0.00 1.04 1.02 82 1007.4
20260509225610 13 141 8.0 19.3 0.00 1.04 1.02 82 1007.2
20260509225027 13 163 4.8 14.5 0.00 1.04 1.02 83 1007.2
20260509224545 13 252 4.8 14.5 0.00 1.04 1.02 83 1007.3
20260509224026 13 181 4.8 12.9 0.00 1.04 1.02 84 1007.3
20260509223527 13 193 4.8 14.5 0.00 1.04 1.02 84 1007.4
20260509223046 13 229 6.4 14.5 0.00 1.04 1.02 84 1007.4
20260509222527 13 158 3.2 12.9 0.00 1.04 1.02 84 1007.3
20260509222026 13 195 6.4 12.9 0.00 1.04 1.02 83 1007.3
20260509221548 13 165 6.4 20.9 0.00 1.04 1.02 83 1007.5
20260509221026 13 234 9.7 20.9 0.00 1.04 1.02 83 1007.5
20260509220526 13 164 6.4 16.1 0.00 1.04 1.02 84 1007.5
20260509220045 13 156 4.8 16.1 0.00 1.04 1.02 84 1007.5
20260509215527 13 155 6.4 19.3 0.00 1.04 1.02 82 1007.4
20260509215026 13 248 4.8 19.3 0.00 1.04 1.02 83 1007.5
20260509214557 13 184 4.8 19.3 0.00 1.04 1.02 84 1007.5
20260509214029 13 188 4.8 22.5 0.00 1.04 1.02 85 1007.6
20260509213527 13 287 8.0 22.5 0.00 1.04 1.02 84 1007.7
20260509213049 13 216 8.0 24.1 0.00 1.04 1.02 85 1007.5
20260509212526 13 207 8.0 24.1 0.00 1.04 1.02 86 1007.7
20260509212028 13 192 6.4 19.3 0.00 1.04 1.02 88 1007.6
20260509211549 12 228 6.4 17.7 0.00 1.04 1.02 88 1007.7
20260509211027 12 132 4.8 17.7 0.00 1.04 1.02 89 1007.7
20260509210527 12 172 8.0 17.7 0.00 1.04 1.02 88 1007.8
20260509210049 12 185 6.4 14.5 0.00 1.04 1.02 89 1007.7
20260509205528 12 178 6.4 19.3 0.00 1.04 1.02 90 1007.6
20260509205027 12 121 8.0 19.3 0.00 1.04 1.02 91 1007.6
20260509204546 12 149 6.4 16.1 0.03 1.04 1.02 91 1007.7
20260509204026 12 190 4.8 16.1 0.08 1.04 1.02 92 1007.9
20260509203530 12 148 6.4 16.1 0.13 1.04 1.02 92 1007.9
20260509203046 12 207 4.8 12.9 0.15 1.04 1.02 93 1008.0
20260509202526 11 223 6.4 14.5 0.18 1.04 1.02 93 1008.1
20260509202025 11 222 4.8 14.5 0.20 1.04 1.02 93 1008.1
20260509201548 11 175 6.4 14.5 0.20 1.04 1.02 93 1008.3
20260509201025 11 227 4.8 12.9 0.20 1.04 1.02 94 1008.2
20260509200526 11 236 3.2 12.9 0.20 1.04 1.02 93 1008.2
20260509200046 11 169 4.8 12.9 0.20 1.04 1.02 93 1008.2
20260509195527 11 188 1.6 8.0 0.23 1.04 1.02 93 1008.3
20260509195026 11 155 1.6 11.3 0.23 1.04 1.02 93 1008.3
20260509194552 11 140 3.2 12.9 0.20 1.02 0.99 93 1008.3
20260509194028 11 194 4.8 12.9 0.15 0.97 0.94 93 1008.5
20260509193527 11 222 1.6 9.7 0.10 0.91 0.89 93 1008.6
20260509193049 11 217 1.6 9.7 0.05 0.86 0.84 93 1008.6
20260509192526 11 171 3.2 11.3 0.05 0.86 0.84 93 1008.5
20260509192026 11 155 3.2 12.9 0.03 0.84 0.81 93 1008.6
20260509191547 11 184 4.8 12.9 0.03 0.84 0.81 93 1008.6
20260509191029 11 176 4.8 12.9 0.03 0.84 0.81 93 1008.7
20260509190527 11 182 4.8 11.3 0.05 0.84 0.81 93 1008.5
20260509190048 11 161 4.8 12.9 0.05 0.84 0.81 93 1008.6
20260509185529 11 178 3.2 12.9 0.05 0.81 0.79 93 1008.7
20260509185026 11 136 8.0 12.9 0.08 0.81 0.79 93 1008.6
20260509184548 11 94 3.2 14.5 0.08 0.81 0.79 93 1008.7
20260509184027 11 216 6.4 16.1 0.10 0.81 0.79 93 1008.6
20260509183526 11 177 4.8 16.1 0.10 0.81 0.79 93 1008.5
20260509183100 11 193 6.4 16.1 0.10 0.81 0.79 93 1008.6
20260509182529 11 157 4.8 14.5 0.10 0.81 0.79 94 1008.7
20260509182027 10 167 3.2 12.9 0.13 0.81 0.79 94 1008.6
20260509181546 10 123 4.8 14.5 0.13 0.81 0.79 94 1008.7
20260509181026 10 153 6.4 14.5 0.13 0.81 0.79 94 1008.8
20260509180528 10 154 4.8 12.9 0.10 0.79 0.76 93 1008.7
20260509180054 10 166 1.6 9.7 0.10 0.79 0.76 93 1008.7
20260509175528 10 139 1.6 6.4 0.08 0.76 0.74 93 1008.8
20260509175028 10 192 1.6 9.7 0.05 0.74 0.71 93 1008.8
20260509174547 10 165 3.2 12.9 0.03 0.71 0.69 93 1008.8
20260509174027 10 199 3.2 12.9 0.03 0.71 0.69 93 1008.8
20260509173525 10 126 1.6 8.0 0.03 0.71 0.69 93 1008.8
20260509173043 10 199 0.0 9.7 0.03 0.71 0.69 93 1008.8
20260509172528 10 179 1.6 9.7 0.03 0.71 0.69 93 1008.8
20260509172028 10 164 1.6 8.0 0.00 0.69 0.66 93 1008.8
20260509171547 10 192 1.6 8.0 0.00 0.69 0.66 93 1008.7
20260509171026 10 150 3.2 11.3 0.00 0.69 0.66 93 1008.9
20260509170526 10 179 3.2 11.3 0.00 0.69 0.66 92 1008.9
20260509170047 10 192 3.2 11.3 0.00 0.69 0.66 93 1008.8
20260509165526 10 198 1.6 11.3 0.00 0.69 0.66 93 1008.7
20260509165026 10 148 1.6 11.3 0.00 0.69 0.66 92 1008.8
20260509164545 10 145 4.8 12.9 0.00 0.69 0.66 92 1008.7
20260509164027 10 146 3.2 12.9 0.00 0.69 0.66 92 1008.8
20260509163530 10 158 1.6 12.9 0.00 0.69 0.66 92 1008.8
20260509163048 10 162 3.2 16.1 0.00 0.69 0.66 93 1008.9
20260509162529 10 155 6.4 16.1 0.00 0.69 0.66 93 1008.8
20260509162028 10 178 4.8 14.5 0.00 0.69 0.66 93 1008.8
20260509161545 9 233 4.8 14.5 0.00 0.69 0.66 93 1008.9
20260509161027 9 150 4.8 14.5 0.00 0.69 0.66 93 1008.9
20260509160526 9 152 6.4 16.1 0.00 0.69 0.66 93 1008.9
20260509160049 9 83 6.4 16.1 0.00 0.69 0.66 93 1009.0
20260509155525 9 109 4.8 14.5 0.00 0.69 0.66 93 1008.9
20260509155027 9 144 6.4 16.1 0.00 0.69 0.66 93 1009.0
20260509154546 9 136 4.8 16.1 0.00 0.69 0.66 92 1009.1
20260509154027 9 202 4.8 14.5 0.00 0.69 0.66 92 1009.1
20260509153525 9 155 6.4 14.5 0.00 0.69 0.66 92 1009.2
20260509153052 9 148 4.8 17.7 0.00 0.69 0.66 92 1009.4
20260509152526 9 149 6.4 17.7 0.00 0.69 0.66 92 1009.2
20260509152026 9 162 6.4 17.7 0.00 0.69 0.66 93 1009.3
20260509151544 9 169 4.8 14.5 0.00 0.69 0.66 92 1009.6
20260509151028 9 144 4.8 12.9 0.00 0.69 0.66 92 1009.6
20260509150529 9 154 3.2 20.9 0.00 0.69 0.66 92 1009.6
20260509150044 9 169 6.4 20.9 0.00 0.69 0.66 92 1009.4
20260509145526 9 76 6.4 20.9 0.00 0.69 0.66 92 1009.5
20260509145030 9 166 4.8 16.1 0.00 0.69 0.66 92 1009.4
20260509144548 9 160 4.8 16.1 0.00 0.69 0.66 92 1009.4
20260509144026 9 117 4.8 14.5 0.00 0.69 0.66 92 1009.4
20260509143529 9 144 4.8 14.5 0.00 0.69 0.66 93 1009.3
20260509143056 9 154 4.8 16.1 0.03 0.69 0.66 93 1009.2
20260509142527 8 148 6.4 16.1 0.03 0.69 0.66 93 1009.2
20260509142027 8 162 4.8 14.5 0.03 0.69 0.66 93 1009.4
20260509141548 8 190 4.8 14.5 0.03 0.69 0.66 93 1009.4
20260509141027 8 157 3.2 14.5 0.03 0.69 0.66 92 1009.3
20260509140529 8 140 4.8 14.5 0.05 0.69 0.66 92 1009.4
20260509140057 8 133 4.8 14.5 0.05 0.69 0.66 93 1009.5
20260509135531 8 136 6.4 11.3 0.05 0.69 0.66 93 1009.5
20260509135028 8 247 1.6 11.3 0.05 0.69 0.66 93 1009.6
20260509134544 8 150 3.2 11.3 0.08 0.69 0.66 93 1009.7
20260509134027 8 0 1.6 8.0 0.08 0.69 0.66 93 1009.8
20260509133528 8 214 1.6 11.3 0.08 0.69 0.66 93 1009.7
20260509133041 8 167 4.8 11.3 0.05 0.66 0.64 93 1009.9
20260509132526 8 219 4.8 11.3 0.05 0.66 0.64 93 1009.7
20260509132025 8 171 4.8 11.3 0.05 0.66 0.64 93 1009.8
20260509131552 8 209 3.2 12.9 0.05 0.66 0.64 93 1009.9
20260509131025 8 164 1.6 17.7 0.05 0.66 0.64 94 1009.9
20260509130529 8 159 6.4 20.9 0.03 0.64 0.61 94 1009.7
20260509130047 8 106 8.0 20.9 0.03 0.64 0.61 94 1009.8
20260509125528 8 155 3.2 12.9 0.03 0.64 0.61 94 1009.9
20260509125025 8 177 4.8 16.1 0.00 0.61 0.58 94 1009.9
20260509124551 8 178 4.8 16.1 0.00 0.61 0.58 95 1009.9
20260509124025 8 159 1.6 12.9 0.00 0.61 0.58 94 1009.8
20260509123528 8 155 3.2 12.9 0.00 0.61 0.58 95 1009.9
20260509123059 8 151 3.2 12.9 0.00 0.61 0.58 95 1009.9
20260509122528 8 150 1.6 8.0 0.00 0.61 0.58 95 1009.8
20260509122026 8 142 1.6 4.8 0.00 0.61 0.58 94 1009.9
20260509121539 7 0 0.0 3.2 0.03 0.61 0.58 95 1009.9
20260509121026 7 153 0.0 3.2 0.03 0.61 0.58 94 1009.9
20260509120526 7 0 0.0 3.2 0.03 0.61 0.58 94 1010.1
20260509120049 7 0 0.0 1.6 0.05 0.61 0.58 94 1010.1
20260509115526 7 0 0.0 1.6 0.05 0.61 0.58 94 1010.0
20260509115025 7 0 0.0 3.2 0.08 0.61 0.58 94 1010.0
20260509114547 7 0 0.0 3.2 0.10 0.61 0.58 94 1010.0
20260509114027 7 0 0.0 4.8 0.10 0.61 0.58 95 1010.1
20260509113530 7 0 0.0 9.7 0.13 0.61 0.58 95 1010.1
20260509113044 7 197 3.2 9.7 0.13 0.61 0.58 95 1010.1
20260509112527 7 161 1.6 8.0 0.15 0.61 0.58 95 1010.2
20260509112027 7 170 0.0 4.8 0.18 0.61 0.58 95 1010.2
20260509111546 7 148 0.0 6.4 0.18 0.58 0.56 95 1010.2
20260509111027 7 0 0.0 6.4 0.18 0.58 0.56 95 1010.3
20260509110528 7 0 0.0 4.8 0.20 0.58 0.56 95 1010.2
20260509110044 7 172 0.0 8.0 0.18 0.56 0.53 95 1010.3
20260509105528 7 194 1.6 8.0 0.20 0.56 0.53 95 1010.3
20260509105028 7 221 1.6 8.0 0.18 0.53 0.51 95 1010.2
20260509104542 7 0 0.0 8.0 0.15 0.51 0.48 94 1010.2
20260509104027 7 182 1.6 8.0 0.15 0.51 0.48 94 1010.2
20260509103530 7 0 0.0 1.6 0.13 0.48 0.46 94 1010.2
20260509103049 7 0 0.0 1.6 0.13 0.46 0.43 94 1010.3
20260509102528 7 0 0.0 1.6 0.13 0.46 0.43 94 1010.2
20260509102029 7 0 0.0 0.0 0.13 0.43 0.41 94 1010.2
20260509101548 7 0 0.0 0.0 0.10 0.41 0.38 94 1010.1
20260509101025 7 0 0.0 0.0 0.10 0.41 0.38 94 1010.1
20260509100524 7 0 0.0 0.0 0.10 0.38 0.36 94 1010.0
20260509100050 7 0 0.0 0.0 0.13 0.38 0.36 94 1009.9
20260509095528 7 0 0.0 0.0 0.13 0.36 0.33 94 1010.0
20260509095024 7 0 0.0 1.6 0.13 0.36 0.33 94 1010.0
20260509094548 7 0 0.0 3.2 0.13 0.36 0.33 94 1009.9
20260509094027 7 0 0.0 3.2 0.13 0.36 0.33 94 1010.0
20260509093528 7 260 0.0 3.2 0.13 0.36 0.33 94 1010.1
20260509093044 7 281 0.0 3.2 0.10 0.33 0.30 94 1010.1
20260509092528 7 0 0.0 0.0 0.10 0.33 0.30 94 1010.0
20260509092031 7 0 0.0 0.0 0.08 0.30 0.28 94 1009.9
20260509091540 7 0 0.0 0.0 0.08 0.30 0.28 94 1010.0
20260509091028 7 0 0.0 0.0 0.08 0.30 0.28 94 1010.1
20260509090528 7 0 0.0 0.0 0.05 0.28 0.25 94 1010.2
20260509090054 7 0 0.0 0.0 0.03 0.25 0.23 94 1010.2
20260509085527 7 0 0.0 1.6 0.00 0.23 0.20 94 1010.3
20260509085027 7 0 0.0 1.6 0.03 0.23 0.20 94 1010.5
20260509084548 7 0 0.0 1.6 0.03 0.23 0.20 94 1010.4
20260509084029 7 0 0.0 4.8 0.03 0.23 0.20 94 1010.5
20260509083528 7 0 0.0 4.8 0.03 0.23 0.20 93 1010.4
20260509083046 7 0 0.0 4.8 0.03 0.23 0.20 93 1010.4
20260509082528 7 0 0.0 3.2 0.03 0.23 0.20 93 1010.4
20260509082025 7 0 0.0 3.2 0.03 0.23 0.20 93 1010.5
20260509081546 7 0 0.0 3.2 0.03 0.23 0.20 93 1010.3
20260509081026 7 0 0.0 3.2 0.03 0.23 0.20 93 1010.5
20260509080529 7 0 0.0 0.0 0.03 0.23 0.20 93 1010.5
20260509080043 7 0 0.0 0.0 0.03 0.23 0.20 93 1010.4
20260509075528 7 0 0.0 0.0 0.03 0.23 0.20 93 1010.3
20260509075028 7 0 0.0 0.0 0.00 0.20 0.18 93 1010.2
20260509074544 7 0 0.0 1.6 0.00 0.20 0.18 93 1010.4
20260509074031 7 0 0.0 1.6 0.00 0.20 0.18 93 1010.5
20260509073531 7 0 0.0 1.6 0.00 0.20 0.18 93 1010.6
20260509073038 7 0 0.0 0.0 0.00 0.20 0.18 92 1010.6
20260509072528 7 0 0.0 0.0 0.00 0.20 0.18 92 1010.7
20260509072027 7 0 0.0 0.0 0.00 0.20 0.18 92 1010.9
20260509071554 7 0 0.0 1.6 0.00 0.20 0.18 93 1010.8
20260509071027 7 0 0.0 3.2 0.00 0.20 0.18 92 1010.8
20260509070528 7 0 0.0 3.2 0.00 0.20 0.18 93 1010.6
20260509070045 7 138 0.0 3.2 0.00 0.20 0.18 93 1010.8
20260509065528 7 159 0.0 3.2 0.03 0.20 0.18 93 1011.0
20260509065027 7 0 0.0 4.8 0.03 0.20 0.18 92 1010.9
20260509064542 7 0 0.0 4.8 0.03 0.20 0.18 92 1011.1
20260509064030 7 0 1.6 4.8 0.03 0.20 0.18 92 1011.2
20260509063530 7 0 1.6 4.8 0.03 0.20 0.18 92 1011.1
20260509063041 7 145 0.0 6.4 0.03 0.20 0.18 92 1011.2
20260509062527 7 0 0.0 6.4 0.03 0.20 0.18 92 1011.4
20260509062029 7 0 0.0 3.2 0.03 0.20 0.18 92 1011.6
20260509061554 7 0 0.0 3.2 0.05 0.20 0.18 92 1011.6
20260509061029 7 0 0.0 3.2 0.05 0.20 0.18 92 1011.7
20260509060527 7 180 0.0 4.8 0.05 0.20 0.18 92 1011.8
20260509060049 7 0 0.0 4.8 0.05 0.20 0.18 92 1011.9
20260509055531 7 0 0.0 3.2 0.03 0.18 0.15 92 1011.9
20260509055030 7 0 0.0 3.2 0.03 0.18 0.15 92 1011.9
20260509054605 7 0 0.0 1.6 0.03 0.18 0.15 92 1012.0
20260509054027 7 0 0.0 4.8 0.05 0.18 0.15 92 1011.8
20260509053527 7 0 0.0 6.4 0.08 0.18 0.15 92 1012.1
20260509053049 8 0 3.2 6.4 0.08 0.18 0.15 92 1012.0
20260509052527 8 0 0.0 4.8 0.10 0.18 0.15 92 1012.1
20260509052027 8 0 0.0 6.4 0.10 0.18 0.15 92 1012.0
20260509051543 8 0 0.0 6.4 0.10 0.15 0.13 92 1012.0
20260509051027 8 215 0.0 6.4 0.10 0.15 0.13 92 1012.1
20260509050527 8 169 0.0 6.4 0.13 0.15 0.13 91 1012.1
20260509050054 8 173 0.0 6.4 0.13 0.15 0.13 91 1012.1
20260509045526 8 144 0.0 6.4 0.13 0.15 0.13 91 1012.0
20260509045027 8 155 1.6 8.0 0.13 0.15 0.13 91 1012.1
20260509044544 8 155 3.2 9.7 0.13 0.15 0.13 91 1012.2
20260509044026 8 215 1.6 9.7 0.13 0.13 0.10 91 1012.2
20260509043527 8 184 1.6 9.7 0.10 0.10 0.08 91 1012.3
20260509043052 8 195 0.0 8.0 0.10 0.10 0.08 91 1012.3
20260509042631 8 153 1.6 8.0 0.08 0.08 0.05 90 1012.3
20260509041028 8 236 0.0 1.6 0.05 0.05 0.03 89 1012.0
20260509040527 8 0 0.0 0.0 0.03 0.03 0.00 89 1011.9
20260509040049 8 0 0.0 0.0 0.03 0.03 0.00 89 1012.0
20260509035529 8 0 0.0 0.0 0.03 0.03 0.03 88 1011.9
20260509035027 8 0 0.0 0.0 0.03 0.03 0.03 88 1012.0
20260509034550 8 0 0.0 3.2 0.03 0.03 0.03 88 1012.0
20260509034031 8 0 0.0 3.2 0.00 0.00 0.00 88 1012.0
20260509033526 8 253 0.0 1.6 0.00 0.00 0.00 88 1012.1
20260509033047 8 0 0.0 4.8 0.00 0.00 0.00 88 1012.1
20260509032528 8 0 0.0 6.4 0.00 0.00 0.00 88 1012.1
20260509032028 8 205 0.0 8.0 0.00 0.00 0.00 88 1012.1
20260509031613 8 224 1.6 8.0 0.00 0.00 0.00 87 1012.2
20260509031027 8 189 1.6 9.7 0.00 0.00 0.00 87 1012.3
20260509030530 8 211 3.2 9.7 0.00 0.00 0.00 86 1012.3
20260509030042 8 0 3.2 11.3 0.00 0.00 0.00 86 1012.3
20260509025526 8 230 3.2 11.3 0.00 0.08 0.00 85 1012.3
20260509025027 8 200 3.2 11.3 0.00 0.08 0.00 85 1012.3
20260509024542 8 201 1.6 8.0 0.00 0.08 0.00 85 1012.3
20260509024027 8 240 3.2 16.1 0.00 0.08 0.00 85 1012.3
20260509023527 8 0 3.2 16.1 0.00 0.08 0.00 85 1012.4
20260509023038 8 0 0.0 9.7 0.00 0.08 0.00 84 1012.2
20260509022526 8 221 3.2 11.3 0.00 0.08 0.00 84 1012.3
20260509022028 9 175 3.2 11.3 0.00 0.08 0.00 84 1012.4
20260509021547 9 200 1.6 11.3 0.00 0.08 0.00 84 1012.3
20260509021027 9 177 1.6 12.9 0.00 0.08 0.00 84 1012.3
20260509020526 9 178 4.8 12.9 0.00 0.08 0.00 84 1012.2
20260509020044 9 185 4.8 14.5 0.00 0.08 0.00 84 1012.3
20260509015527 9 144 3.2 14.5 0.00 0.18 0.00 83 1012.1
20260509015028 9 155 6.4 14.5 0.00 0.18 0.00 83 1012.1
20260509014544 9 205 4.8 14.5 0.00 0.18 0.00 83 1012.0
20260509014027 9 184 6.4 17.7 0.00 0.18 0.00 82 1011.9
20260509013527 9 216 3.2 17.7 0.00 0.18 0.00 82 1011.9
20260509013047 10 198 4.8 17.7 0.00 0.18 0.00 81 1011.8
20260509012528 10 171 8.0 17.7 0.00 0.18 0.00 81 1011.7
20260509012028 10 154 6.4 17.7 0.00 0.18 0.00 80 1011.7
20260509011547 10 158 6.4 16.1 0.00 0.18 0.00 79 1011.5
20260509011029 10 138 6.4 16.1 0.00 0.18 0.00 79 1011.4
20260509010526 10 202 3.2 6.4 0.00 0.18 0.00 79 1011.4
20260509010047 10 181 1.6 6.4 0.00 0.18 0.00 79 1011.5
20260509005528 10 185 0.0 6.4 0.00 0.18 0.00 79 1011.3
20260509005027 10 0 0.0 4.8 0.00 0.18 0.00 79 1011.4
20260509004550 10 0 0.0 6.4 0.00 0.18 0.00 79 1011.2
20260509004027 10 0 1.6 6.4 0.00 0.18 0.00 79 1011.1
20260509003528 10 218 1.6 4.8 0.00 0.18 0.00 78 1011.1
20260509003047 10 0 0.0 8.0 0.00 0.18 0.00 78 1011.0
20260509002529 10 198 0.0 8.0 0.00 0.18 0.00 77 1011.1
20260509002027 10 217 0.0 4.8 0.00 0.18 0.00 77 1010.9
20260509001545 10 0 1.6 4.8 0.00 0.18 0.00 76 1011.0
20260509001028 10 0 0.0 4.8 0.00 0.18 0.00 76 1010.9
20260509000527 10 0 0.0 4.8 0.00 0.18 0.00 76 1010.9